createdAt,value
2023-02-01T00:01:12.688Z,101250.97
2023-02-01T00:03:14.276Z,101246.72
2023-02-01T00:05:17.422Z,101254.78
2023-02-01T00:07:18.945Z,101245.09
2023-02-01T00:09:20.515Z,101245.09
2023-02-01T00:11:23.296Z,101241.88
2023-02-01T00:13:24.791Z,101231.69
2023-02-01T00:15:26.388Z,101223.63
2023-02-01T00:17:27.905Z,101231.94
2023-02-01T00:19:29.429Z,101231.78
2023-02-01T00:21:33.251Z,101233.09
2023-02-01T00:23:36.083Z,101225.03
2023-02-01T00:25:37.651Z,101228.34
2023-02-01T00:27:39.215Z,101226.50
2023-02-01T00:29:40.739Z,101227.19
2023-02-01T00:31:42.964Z,101217.84
2023-02-01T00:33:48.117Z,101219.25
2023-02-01T00:35:49.684Z,101206.88
2023-02-01T00:37:52.568Z,101205.72
2023-02-01T00:40:07.120Z,101204.13
2023-02-01T00:42:08.674Z,101208.31
2023-02-01T00:44:10.772Z,101210.44
2023-02-01T00:46:19.797Z,101217.44
2023-02-01T00:48:21.356Z,101219.31
2023-02-01T00:50:23.152Z,101208.06
2023-02-01T00:52:24.966Z,101211.09
2023-02-01T00:54:27.982Z,101215.91
2023-02-01T00:56:29.534Z,101221.50
2023-02-01T00:58:31.116Z,101228.34
2023-02-01T01:00:32.692Z,101224.72
2023-02-01T01:02:34.276Z,101223.06
2023-02-01T01:04:35.840Z,101219.81
2023-02-01T01:06:37.439Z,101220.03
2023-02-01T01:08:40.276Z,101217.19
2023-02-01T01:10:44.025Z,101218.69
2023-02-01T01:12:45.561Z,101210.03
2023-02-01T01:14:47.167Z,101215.34
2023-02-01T01:16:48.729Z,101213.13
2023-02-01T01:18:50.257Z,101215.34
2023-02-01T01:20:51.713Z,101216.25
2023-02-01T01:22:53.280Z,101208.78
2023-02-01T01:24:54.813Z,101206.16
2023-02-01T01:26:57.694Z,101207.78
2023-02-01T01:29:00.136Z,101202.41
2023-02-01T01:31:02.147Z,101213.63
2023-02-01T01:33:03.868Z,101205.34
2023-02-01T01:35:06.411Z,101213.09
2023-02-01T01:37:10.957Z,101206.56
2023-02-01T01:39:12.465Z,101207.94
2023-02-01T01:41:16.289Z,101209.56
2023-02-01T01:43:21.043Z,101204.47
2023-02-01T01:45:27.276Z,101202.00
2023-02-01T01:47:34.946Z,101200.72
2023-02-01T01:49:36.945Z,101187.03
2023-02-01T01:51:43.501Z,101183.56
2023-02-01T01:53:50.939Z,101177.50
2023-02-01T01:55:54.862Z,101168.72
2023-02-01T01:58:00.147Z,101164.25
2023-02-01T02:00:06.526Z,101160.44
2023-02-01T02:02:08.276Z,101159.94
2023-02-01T02:04:10.318Z,101169.38
2023-02-01T02:06:18.035Z,101174.50
2023-02-01T02:08:21.148Z,101178.41
2023-02-01T02:10:23.299Z,101173.03
2023-02-01T02:12:25.060Z,101176.56
2023-02-01T02:14:28.130Z,101167.09
2023-02-01T02:29:05.427Z,101175.97
2023-02-01T02:31:33.419Z,101164.41
2023-02-01T02:33:57.675Z,101167.19
2023-02-01T02:36:02.520Z,101170.44
2023-02-01T02:38:14.013Z,101159.03
2023-02-01T02:40:19.873Z,101146.19
2023-02-01T02:42:30.441Z,101146.66
2023-02-01T02:44:40.952Z,101142.28
2023-02-01T02:46:50.180Z,101126.34
2023-02-01T02:49:00.533Z,101127.66
2023-02-01T02:51:06.338Z,101129.75
2023-02-01T02:53:11.984Z,101134.88
2023-02-01T02:55:13.974Z,101129.50
2023-02-01T02:57:19.609Z,101126.66
2023-02-01T02:59:24.449Z,101133.75
2023-02-01T03:01:26.443Z,101119.81
2023-02-01T03:03:28.057Z,101119.50
2023-02-01T03:05:34.908Z,101117.88
2023-02-01T03:08:04.236Z,101119.19
2023-02-01T03:10:12.639Z,101114.06
2023-02-01T03:12:16.266Z,101126.34
2023-02-01T03:14:22.121Z,101124.38
2023-02-01T03:16:25.504Z,101123.50
2023-02-01T03:18:33.560Z,101127.38
2023-02-01T03:20:38.825Z,101121.38
2023-02-01T03:22:44.688Z,101122.75
2023-02-01T03:24:49.948Z,101114.81
2023-02-01T03:27:02.390Z,101114.13
2023-02-01T03:29:09.796Z,101118.94
2023-02-01T03:31:16.293Z,101117.06
2023-02-01T03:33:21.121Z,101100.41
2023-02-01T03:35:28.626Z,101106.91
2023-02-01T03:37:31.613Z,101107.56
2023-02-01T03:39:36.961Z,101105.19
2023-02-01T03:41:43.387Z,101109.75
2023-02-01T03:43:54.905Z,101108.44
2023-02-01T03:46:01.251Z,101111.38
2023-02-01T03:48:04.981Z,101113.34
2023-02-01T03:50:09.020Z,101117.06
2023-02-01T03:52:14.762Z,101118.13
2023-02-01T03:54:19.754Z,101119.50
2023-02-01T03:56:22.801Z,101124.81
2023-02-01T03:58:24.723Z,101119.19
2023-02-01T04:00:27.355Z,101116.81
2023-02-01T04:02:28.859Z,101116.91
2023-02-01T04:06:46.347Z,101118.28
2023-02-01T04:08:51.191Z,101116.91
2023-02-01T04:10:54.115Z,101113.09
2023-02-01T04:12:55.616Z,101118.56
2023-02-01T04:14:57.124Z,101119.91
2023-02-01T04:16:58.613Z,101109.75
2023-02-01T04:19:00.610Z,101113.50
2023-02-01T04:21:02.642Z,101107.81
2023-02-01T04:23:07.227Z,101108.94
2023-02-01T04:25:09.328Z,101110.06
2023-02-01T04:27:12.274Z,101110.06
2023-02-01T04:29:14.044Z,101099.03
2023-02-01T04:31:16.176Z,101095.13
2023-02-01T04:33:17.693Z,101102.13
2023-02-01T04:35:19.272Z,101101.59
2023-02-01T04:37:20.742Z,101099.31
2023-02-01T04:39:22.279Z,101109.00
2023-02-01T04:41:23.946Z,101109.81
2023-02-01T04:43:27.162Z,101116.22
2023-02-01T04:45:28.899Z,101111.53
2023-02-01T04:47:30.568Z,101107.63
2023-02-01T04:49:32.092Z,101112.75
2023-02-01T04:51:33.590Z,101110.53
2023-02-01T04:53:35.088Z,101107.06
2023-02-01T04:55:36.651Z,101106.00
2023-02-01T04:57:38.223Z,101107.06
2023-02-01T04:59:41.285Z,101103.88
2023-02-01T05:01:42.872Z,101103.31
2023-02-01T05:03:44.661Z,101107.94
2023-02-01T05:05:48.277Z,101107.88
2023-02-01T05:07:49.822Z,101123.97
2023-02-01T05:09:51.337Z,101122.44
2023-02-01T05:11:53.078Z,101134.06
2023-02-01T05:13:54.670Z,101125.53
2023-02-01T05:15:57.653Z,101134.94
2023-02-01T05:17:59.615Z,101130.16
2023-02-01T05:20:01.612Z,101133.56
2023-02-01T05:22:03.135Z,101129.91
2023-02-01T05:24:05.476Z,101129.13
2023-02-01T05:26:07.032Z,101136.81
2023-02-01T05:28:08.581Z,101142.44
2023-02-01T05:30:11.381Z,101140.81
2023-02-01T05:32:21.992Z,101153.34
2023-02-01T05:34:24.050Z,101167.25
2023-02-01T05:36:25.894Z,101169.13
2023-02-01T05:38:27.538Z,101168.66
2023-02-01T05:40:29.100Z,101168.84
2023-02-01T05:42:30.692Z,101170.59
2023-02-01T05:44:32.258Z,101134.34
2023-02-01T05:46:34.597Z,101119.81
2023-02-01T05:48:37.563Z,101115.53
2023-02-01T05:50:39.251Z,101125.88
2023-02-01T05:52:40.780Z,101118.38
2023-02-01T05:54:42.402Z,101115.69
2023-02-01T05:56:43.929Z,101116.66
2023-02-01T05:58:45.439Z,101119.16
2023-02-01T06:00:47.003Z,101111.38
2023-02-01T06:02:48.585Z,101108.03
2023-02-01T06:04:51.601Z,101108.59
2023-02-01T06:06:53.155Z,101102.44
2023-02-01T06:08:54.726Z,101101.84
2023-02-01T06:10:59.695Z,101095.91
2023-02-01T06:13:01.328Z,101097.22
2023-02-01T06:15:02.932Z,101105.91
2023-02-01T06:17:04.602Z,101105.91
2023-02-01T06:19:06.184Z,101119.59
2023-02-01T06:21:09.683Z,101119.13
2023-02-01T06:23:11.230Z,101129.59
2023-02-01T06:25:12.884Z,101123.09
2023-02-01T06:27:14.382Z,101118.22
2023-02-01T06:29:15.967Z,101120.72
2023-02-01T06:31:17.590Z,101116.44
2023-02-01T06:33:19.172Z,101109.66
2023-02-01T06:35:20.741Z,101112.59
2023-02-01T06:37:23.992Z,101123.09
2023-02-01T06:39:25.549Z,101114.22
2023-02-01T06:41:29.305Z,101110.72
2023-02-01T06:43:31.591Z,101118.38
2023-02-01T06:45:33.215Z,101113.09
2023-02-01T06:47:34.870Z,101120.41
2023-02-01T06:49:36.507Z,101127.19
2023-02-01T06:51:37.995Z,101118.03
2023-02-01T06:53:40.893Z,101120.25
2023-02-01T06:55:42.569Z,101121.81
2023-02-01T06:57:44.107Z,101133.44
2023-02-01T06:59:45.641Z,101132.28
2023-02-01T07:01:47.251Z,101146.19
2023-02-01T07:03:52.263Z,101130.09
2023-02-01T07:05:59.253Z,101140.34
2023-02-01T07:08:12.799Z,101133.91
2023-02-01T07:10:18.552Z,101135.53
2023-02-01T07:12:25.440Z,101127.56
2023-02-01T07:14:26.976Z,101136.75
2023-02-01T07:16:28.653Z,101130.91
2023-02-01T07:18:31.298Z,101132.53
2023-02-01T07:20:32.918Z,101128.44
2023-02-01T07:22:34.454Z,101137.06
2023-02-01T07:24:36.032Z,101136.75
2023-02-01T07:26:39.032Z,101134.66
2023-02-01T07:28:41.214Z,101134.56
2023-02-01T07:30:42.799Z,101126.91
2023-02-01T07:32:44.561Z,101118.88
2023-02-01T07:34:46.306Z,101117.56
2023-02-01T07:36:47.834Z,101108.13
2023-02-01T07:38:49.489Z,101120.00
2023-02-01T07:40:51.200Z,101121.06
2023-02-01T07:42:54.100Z,101126.97
2023-02-01T07:44:55.630Z,101132.69
2023-02-01T07:46:57.203Z,101138.13
2023-02-01T07:49:05.815Z,101144.25
2023-02-01T07:51:10.753Z,101149.13
2023-02-01T07:53:12.401Z,101152.03
2023-02-01T07:55:14.138Z,101160.94
2023-02-01T07:57:15.692Z,101159.88
2023-02-01T07:59:18.634Z,101166.28
2023-02-01T08:01:22.987Z,101169.56
2023-02-01T08:03:24.569Z,101163.34
2023-02-01T08:05:26.177Z,101179.78
2023-02-01T08:07:27.663Z,101186.56
2023-02-01T08:09:29.290Z,101187.34
2023-02-01T08:11:31.211Z,101194.03
2023-02-01T08:13:34.522Z,101191.66
2023-02-01T08:15:37.495Z,101204.53
2023-02-01T08:17:38.985Z,101198.09
2023-02-01T08:19:40.505Z,101210.47
2023-02-01T08:21:42.340Z,101210.00
2023-02-01T08:23:44.438Z,101213.72
2023-02-01T08:25:46.074Z,101208.19
2023-02-01T08:27:47.681Z,101209.91
2023-02-01T08:29:49.478Z,101210.47
2023-02-01T08:31:52.369Z,101209.72
2023-02-01T08:33:55.945Z,101216.00
2023-02-01T08:35:57.451Z,101213.09
2023-02-01T08:37:58.920Z,101226.75
2023-02-01T08:40:00.541Z,101217.94
2023-02-01T08:42:02.084Z,101223.56
2023-02-01T08:44:03.947Z,101212.84
2023-02-01T08:46:06.110Z,101211.22
2023-02-01T08:48:09.142Z,101209.00
2023-02-01T08:50:11.449Z,101206.31
2023-02-01T08:52:15.983Z,101200.47
2023-02-01T08:54:17.829Z,101207.53
2023-02-01T08:56:20.240Z,101215.03
2023-02-01T08:58:21.869Z,101209.72
2023-02-01T09:00:23.712Z,101215.09
2023-02-01T09:02:25.651Z,101212.19
2023-02-01T09:04:28.630Z,101210.06
2023-02-01T09:06:30.175Z,101207.72
2023-02-01T09:08:32.129Z,101218.94
2023-02-01T09:10:35.511Z,101215.78
2023-02-01T09:12:37.250Z,101214.47
2023-02-01T09:14:38.842Z,101215.56
2023-02-01T09:16:40.455Z,101213.28
2023-02-01T09:18:50.880Z,101215.97
2023-02-01T09:21:06.947Z,101213.44
2023-02-01T09:23:08.611Z,101208.72
2023-02-01T09:25:10.191Z,101209.13
2023-02-01T09:27:11.823Z,101210.84
2023-02-01T09:29:13.419Z,101217.91
2023-02-01T09:31:15.089Z,101214.16
2023-02-01T09:33:16.847Z,101223.25
2023-02-01T09:35:18.422Z,101220.91
2023-02-01T09:37:21.780Z,101225.97
2023-02-01T09:39:23.459Z,101229.53
2023-02-01T09:41:36.421Z,101234.41
2023-02-01T09:43:49.529Z,101233.34
2023-02-01T09:46:03.357Z,101236.94
2023-02-01T09:48:13.954Z,101235.88
2023-02-01T09:50:17.955Z,101248.16
2023-02-01T09:52:28.600Z,101267.25
2023-02-01T09:54:41.644Z,101264.63
2023-02-01T09:56:47.479Z,101267.31
2023-02-01T09:58:56.039Z,101265.72
2023-02-01T10:01:00.687Z,101278.81
2023-02-01T10:03:02.261Z,101282.91
2023-02-01T10:05:04.507Z,101284.53
2023-02-01T10:07:26.707Z,101282.63
2023-02-01T10:09:45.310Z,101297.13
2023-02-01T10:12:00.529Z,101289.06
2023-02-01T10:14:08.246Z,101290.38
2023-02-01T10:16:29.542Z,101290.44
2023-02-01T10:18:45.848Z,101295.03
2023-02-01T10:20:58.498Z,101281.63
2023-02-01T10:23:32.840Z,101292.16
2023-02-01T10:25:41.563Z,101290.03
2023-02-01T10:27:43.216Z,101285.94
2023-02-01T10:29:46.825Z,101289.47
2023-02-01T10:31:48.599Z,101285.94
2023-02-01T10:33:53.808Z,101290.28
2023-02-01T10:36:02.531Z,101285.94
2023-02-01T10:38:13.281Z,101288.16
2023-02-01T10:40:18.581Z,101279.03
2023-02-01T10:42:22.520Z,101290.94
2023-02-01T10:44:27.103Z,101280.16
2023-02-01T10:46:28.758Z,101272.59
2023-02-01T10:48:31.234Z,101274.72
2023-02-01T10:50:37.709Z,101268.84
2023-02-01T10:52:44.499Z,101275.84
2023-02-01T10:54:47.501Z,101270.97
2023-02-01T10:56:50.694Z,101268.66
2023-02-01T10:59:00.365Z,101264.41
2023-02-01T11:01:04.205Z,101262.22
2023-02-01T11:03:22.098Z,101251.69
2023-02-01T11:05:25.100Z,101246.84
2023-02-01T11:07:27.150Z,101231.69
2023-02-01T11:09:28.796Z,101222.81
2023-02-01T11:11:31.760Z,101220.13
2023-02-01T11:13:38.034Z,101211.31
2023-02-01T11:15:44.374Z,101215.09
2023-02-01T11:17:48.553Z,101216.25
2023-02-01T11:19:58.286Z,101213.81
2023-02-01T11:22:01.233Z,101212.09
2023-02-01T11:24:05.372Z,101219.69
2023-02-01T11:26:12.237Z,101216.44
2023-02-01T11:28:16.647Z,101215.38
2023-02-01T11:30:23.976Z,101211.53
2023-02-01T11:32:25.982Z,101205.97
2023-02-01T11:34:32.735Z,101213.44
2023-02-01T11:36:37.579Z,101206.41
2023-02-01T11:38:39.201Z,101222.81
2023-02-01T11:40:40.753Z,101213.03
2023-02-01T11:42:55.101Z,101213.91
2023-02-01T11:45:19.956Z,101204.47
2023-02-01T11:47:24.544Z,101206.34
2023-02-01T11:49:28.170Z,101200.97
2023-02-01T11:51:52.097Z,101204.47
2023-02-01T11:54:12.689Z,101196.09
2023-02-01T11:56:26.167Z,101203.13
2023-02-01T11:58:57.906Z,101195.84
2023-02-01T12:01:27.211Z,101206.41
2023-02-01T12:03:51.585Z,101203.47
2023-02-01T12:06:00.303Z,101207.78
2023-02-01T12:08:17.226Z,101198.09
2023-02-01T12:10:36.413Z,101203.25
2023-02-01T12:12:49.434Z,101205.63
2023-02-01T12:15:29.806Z,101212.09
2023-02-01T12:17:51.745Z,101215.06
2023-02-01T12:20:09.939Z,101209.69
2023-02-01T12:22:32.109Z,101210.91
2023-02-01T12:24:57.018Z,101204.75
2023-02-01T12:27:11.529Z,101199.91
2023-02-01T12:29:27.058Z,101202.59
2023-02-01T12:32:00.678Z,101201.47
2023-02-01T12:34:21.594Z,101206.56
2023-02-01T12:36:32.945Z,101202.47
2023-02-01T12:38:50.410Z,101195.53
2023-02-01T12:41:05.655Z,101193.13
2023-02-01T12:43:12.329Z,101184.28
2023-02-01T12:45:19.531Z,101181.59
2023-02-01T12:47:25.607Z,101180.53
2023-02-01T12:49:42.607Z,101170.84
2023-02-01T12:51:47.379Z,101171.91
2023-02-01T12:53:54.933Z,101165.22
2023-02-01T12:56:00.012Z,101170.31
2023-02-01T12:58:11.032Z,101163.66
2023-02-01T13:00:23.466Z,101159.38
2023-02-01T13:02:36.495Z,101158.88
2023-02-01T13:04:50.204Z,101154.06
2023-02-01T13:06:55.041Z,101167.75
2023-02-01T13:09:05.553Z,101167.44
2023-02-01T13:11:13.094Z,101167.03
2023-02-01T13:13:19.963Z,101158.88
2023-02-01T13:15:26.634Z,101150.56
2023-02-01T13:17:31.389Z,101151.94
2023-02-01T13:19:45.133Z,101150.63
2023-02-01T13:21:51.103Z,101153.06
2023-02-01T13:23:54.087Z,101138.84
2023-02-01T13:25:56.280Z,101131.59
2023-02-01T13:28:05.432Z,101134.78
2023-02-01T13:30:14.685Z,101141.22
2023-02-01T13:33:51.097Z,101128.63
2023-02-01T13:35:36.467Z,101136.50
2023-02-01T13:38:02.379Z,101133.47
2023-02-01T13:40:23.136Z,101130.88
2023-02-01T13:42:28.634Z,101133.56
2023-02-01T13:44:33.612Z,101133.59
2023-02-01T13:46:42.301Z,101122.34
2023-02-01T13:48:50.545Z,101126.66
2023-02-01T13:50:57.213Z,101124.78
2023-02-01T13:53:00.933Z,101129.59
2023-02-01T13:55:15.431Z,101121.28
2023-02-01T13:57:36.514Z,101123.97
2023-02-01T14:00:06.463Z,101139.03
2023-02-01T14:02:52.729Z,101126.34
2023-02-01T14:04:54.269Z,101128.47
2023-02-01T14:06:59.028Z,101126.84
2023-02-01T14:09:15.264Z,101133.09
2023-02-01T14:11:41.400Z,101144.91
2023-02-01T14:13:43.131Z,101140.88
2023-02-01T14:16:16.046Z,101133.56
2023-02-01T14:18:50.424Z,101136.25
2023-02-01T14:21:22.173Z,101130.91
2023-02-01T14:23:28.254Z,101132.22
2023-02-01T14:25:34.313Z,101142.00
2023-02-01T14:27:37.291Z,101144.31
2023-02-01T14:29:41.120Z,101142.84
2023-02-01T14:31:53.802Z,101144.22
2023-02-01T14:33:59.691Z,101142.97
2023-02-01T14:36:08.852Z,101151.03
2023-02-01T14:38:11.726Z,101162.31
2023-02-01T14:40:20.680Z,101154.81
2023-02-01T14:42:27.175Z,101150.94
2023-02-01T14:44:31.832Z,101149.53
2023-02-01T14:47:18.354Z,101146.06
2023-02-01T14:49:21.445Z,101147.13
2023-02-01T14:51:25.362Z,101134.72
2023-02-01T14:53:33.951Z,101134.16
2023-02-01T14:55:41.089Z,101125.28
2023-02-01T14:57:45.175Z,101127.13
2023-02-01T14:59:47.025Z,101125.66
2023-02-01T15:01:51.873Z,101134.63
2023-02-01T15:04:01.945Z,101135.41
2023-02-01T15:06:05.417Z,101131.66
2023-02-01T15:08:17.447Z,101144.63
2023-02-01T15:10:21.482Z,101133.59
2023-02-01T15:12:26.021Z,101134.72
2023-02-01T15:14:28.926Z,101135.28
2023-02-01T15:16:30.517Z,101133.59
2023-02-01T15:18:32.883Z,101139.53
2023-02-01T15:20:34.455Z,101143.63
2023-02-01T15:22:38.269Z,101138.28
2023-02-01T15:24:39.876Z,101146.63
2023-02-01T15:26:41.765Z,101137.22
2023-02-01T15:28:43.410Z,101120.00
2023-02-01T15:30:55.006Z,101122.44
2023-02-01T15:33:06.760Z,101121.63
2023-02-01T15:35:32.805Z,101121.66
2023-02-01T15:37:34.361Z,101114.53
2023-02-01T15:39:37.278Z,101115.09
2023-02-01T15:41:39.748Z,101122.59
2023-02-01T15:43:44.056Z,101120.72
2023-02-01T15:45:45.692Z,101132.53
2023-02-01T15:47:49.390Z,101139.31
2023-02-01T15:49:53.441Z,101140.09
2023-02-01T15:51:58.475Z,101144.69
2023-02-01T15:54:03.190Z,101139.53
2023-02-01T15:56:06.575Z,101141.13
2023-02-01T15:58:08.945Z,101133.56
2023-02-01T16:00:23.349Z,101143.75
2023-02-01T16:02:33.916Z,101146.72
2023-02-01T16:04:47.876Z,101140.56
2023-02-01T16:06:52.366Z,101139.22
2023-02-01T16:09:00.761Z,101145.38
2023-02-01T16:11:24.419Z,101142.19
2023-02-01T16:13:26.036Z,101142.75
2023-02-01T16:15:27.820Z,101146.00
2023-02-01T16:17:29.407Z,101143.84
2023-02-01T16:19:30.906Z,101141.66
2023-02-01T16:21:32.489Z,101139.81
2023-02-01T16:23:34.038Z,101140.59
2023-02-01T16:25:35.839Z,101143.56
2023-02-01T16:27:38.763Z,101144.34
2023-02-01T16:29:42.127Z,101139.50
2023-02-01T16:31:44.588Z,101148.88
2023-02-01T16:33:47.989Z,101151.91
2023-02-01T16:35:50.794Z,101148.63
2023-02-01T16:37:52.411Z,101145.69
2023-02-01T16:39:54.015Z,101153.25
2023-02-01T16:41:55.588Z,101149.88
2023-02-01T16:43:58.526Z,101152.00
2023-02-01T16:46:02.080Z,101150.31
2023-02-01T16:48:05.498Z,101147.91
2023-02-01T16:50:22.793Z,101150.47
2023-02-01T16:52:27.182Z,101150.72
2023-02-01T16:54:28.774Z,101151.25
2023-02-01T16:56:32.548Z,101152.59
2023-02-01T16:58:34.160Z,101150.97
2023-02-01T17:00:37.290Z,101156.63
2023-02-01T17:02:41.183Z,101148.28
2023-02-01T17:04:43.473Z,101150.41
2023-02-01T17:06:45.125Z,101145.59
2023-02-01T17:08:50.855Z,101142.41
2023-02-01T17:10:52.436Z,101151.78
2023-02-01T17:12:54.021Z,101145.59
2023-02-01T17:14:55.888Z,101132.66
2023-02-01T17:17:01.944Z,101139.41
2023-02-01T17:19:07.321Z,101144.50
2023-02-01T17:21:11.162Z,101142.34
2023-02-01T17:23:13.068Z,101140.47
2023-02-01T17:25:16.648Z,101137.50
2023-02-01T17:27:19.029Z,101138.94
2023-02-01T17:29:20.763Z,101135.94
2023-02-01T17:31:22.552Z,101128.47
2023-02-01T17:33:35.758Z,101138.94
2023-02-01T17:35:38.234Z,101128.72
2023-02-01T17:37:40.169Z,101129.53
2023-02-01T17:39:41.692Z,101139.63
2023-02-01T17:41:46.084Z,101130.28
2023-02-01T17:43:48.707Z,101144.50
2023-02-01T17:45:53.049Z,101138.56
2023-02-01T17:47:54.706Z,101140.19
2023-02-01T17:49:57.868Z,101137.00
2023-02-01T17:51:59.401Z,101139.63
2023-02-01T17:54:01.187Z,101136.16
2023-02-01T17:56:03.006Z,101145.28
2023-02-01T17:58:04.536Z,101142.28
2023-02-01T18:00:07.628Z,101144.72
2023-02-01T18:02:18.430Z,101144.50
2023-02-01T18:04:20.048Z,101151.94
2023-02-01T18:06:24.811Z,101150.38
2023-02-01T18:08:27.975Z,101152.78
2023-02-01T18:10:29.808Z,101154.69
2023-02-01T18:12:34.237Z,101152.22
2023-02-01T18:14:36.599Z,101149.31
2023-02-01T18:16:38.243Z,101147.88
2023-02-01T18:18:42.966Z,101151.94
2023-02-01T18:20:46.020Z,101145.75
2023-02-01T18:22:49.572Z,101142.22
2023-02-01T18:24:51.501Z,101146.50
2023-02-01T18:26:53.179Z,101141.44
2023-02-01T18:28:55.023Z,101139.03
2023-02-01T18:30:56.830Z,101153.56
2023-02-01T18:32:58.629Z,101148.44
2023-02-01T18:35:01.493Z,101152.75
2023-02-01T18:37:03.256Z,101145.50
2023-02-01T18:39:06.271Z,101144.69
2023-02-01T18:41:11.831Z,101148.69
2023-02-01T18:43:14.022Z,101151.72
2023-02-01T18:45:30.756Z,101149.09
2023-02-01T18:47:35.687Z,101160.09
2023-02-01T18:49:37.935Z,101165.47
2023-02-01T18:51:39.837Z,101158.53
2023-02-01T18:53:41.409Z,101153.97
2023-02-01T18:55:44.337Z,101150.97
2023-02-01T18:57:48.391Z,101148.53
2023-02-01T18:59:50.030Z,101164.13
2023-02-01T19:01:51.768Z,101160.56
2023-02-01T19:04:09.976Z,101152.50
2023-02-01T19:06:15.217Z,101151.81
2023-02-01T19:08:16.828Z,101162.09
2023-02-01T19:10:20.260Z,101158.84
2023-02-01T19:12:25.715Z,101157.06
2023-02-01T19:14:27.257Z,101162.94
2023-02-01T19:16:28.819Z,101158.72
2023-02-01T19:18:30.518Z,101164.22
2023-02-01T19:20:32.501Z,101149.19
2023-02-01T19:22:34.095Z,101154.97
2023-02-01T19:24:35.688Z,101151.75
2023-02-01T19:26:37.356Z,101164.94
2023-02-01T19:28:40.603Z,101160.88
2023-02-01T19:30:42.698Z,101162.50
2023-02-01T19:32:44.340Z,101164.13
2023-02-01T19:34:45.985Z,101165.44
2023-02-01T19:36:47.534Z,101168.13
2023-02-01T19:38:49.121Z,101163.00
2023-02-01T19:40:54.126Z,101164.56
2023-02-01T19:42:55.737Z,101164.84
2023-02-01T19:44:58.694Z,101162.44
2023-02-01T19:47:00.916Z,101166.47
2023-02-01T19:49:02.550Z,101169.44
2023-02-01T19:51:04.682Z,101152.75
2023-02-01T19:53:06.309Z,101151.38
2023-02-01T19:55:08.337Z,101149.44
2023-02-01T19:57:10.102Z,101151.31
2023-02-01T19:59:12.571Z,101159.38
2023-02-01T20:01:14.712Z,101162.06
2023-02-01T20:03:16.276Z,101163.41
2023-02-01T20:05:17.845Z,101163.69
2023-02-01T20:07:19.382Z,101159.16
2023-02-01T20:09:22.498Z,101162.63
2023-02-01T20:11:25.147Z,101163.50
2023-02-01T20:13:26.743Z,101169.72
2023-02-01T20:15:28.543Z,101167.75
2023-02-01T20:17:31.487Z,101177.72
2023-02-01T20:19:33.881Z,101179.06
2023-02-01T20:21:36.386Z,101173.19
2023-02-01T20:23:38.308Z,101178.09
2023-02-01T20:25:40.732Z,101183.22
2023-02-01T20:27:42.325Z,101185.03
2023-02-01T20:29:43.956Z,101184.47
2023-02-01T20:31:46.335Z,101184.03
2023-02-01T20:33:49.320Z,101187.25
2023-02-01T20:35:50.911Z,101200.50
2023-02-01T20:37:52.500Z,101193.47
2023-02-01T20:39:55.679Z,101203.41
2023-02-01T20:41:57.277Z,101199.19
2023-02-01T20:43:58.851Z,101209.16
2023-02-01T20:46:01.222Z,101206.91
2023-02-01T20:48:02.948Z,101209.16
2023-02-01T20:50:07.179Z,101218.59
2023-02-01T20:52:08.773Z,101214.00
2023-02-01T20:54:10.377Z,101210.25
2023-02-01T20:56:13.083Z,101206.19
2023-02-01T20:58:14.808Z,101219.91
2023-02-01T21:00:17.011Z,101208.31
2023-02-01T21:02:18.581Z,101200.25
2023-02-01T21:04:24.904Z,101201.31
2023-02-01T21:06:36.970Z,101187.84
2023-02-01T21:08:38.999Z,101187.06
2023-02-01T21:10:40.945Z,101177.09
2023-02-01T21:12:42.548Z,101179.19
2023-02-01T21:14:44.218Z,101176.31
2023-02-01T21:16:45.895Z,101169.50
2023-02-01T21:18:50.258Z,101165.94
2023-02-01T21:20:52.074Z,101168.09
2023-02-01T21:22:55.584Z,101167.56
2023-02-01T21:24:57.183Z,101171.66
2023-02-01T21:26:58.766Z,101184.38
2023-02-01T21:29:00.311Z,101181.50
2023-02-01T21:31:01.894Z,101186.31
2023-02-01T21:33:04.039Z,101188.50
2023-02-01T21:35:06.634Z,101199.78
2023-02-01T21:37:08.695Z,101195.25
2023-02-01T21:39:11.995Z,101196.59
2023-02-01T21:41:13.684Z,101196.34
2023-02-01T21:43:15.272Z,101195.81
2023-02-01T21:45:19.891Z,101195.84
2023-02-01T21:47:24.168Z,101192.28
2023-02-01T21:49:27.594Z,101198.50
2023-02-01T21:51:29.592Z,101195.81
2023-02-01T21:53:31.146Z,101198.50
2023-02-01T21:55:34.252Z,101185.81
2023-02-01T21:57:35.868Z,101200.84
2023-02-01T21:59:37.577Z,101203.50
2023-02-01T22:01:40.315Z,101199.78
2023-02-01T22:03:41.913Z,101203.06
2023-02-01T22:05:43.451Z,101205.75
2023-02-01T22:07:45.055Z,101214.38
2023-02-01T22:09:46.649Z,101208.50
2023-02-01T22:11:50.752Z,101207.19
2023-02-01T22:13:52.494Z,101209.25
2023-02-01T22:15:55.942Z,101208.44
2023-02-01T22:17:57.431Z,101201.94
2023-02-01T22:19:59.060Z,101202.94
2023-02-01T22:22:03.117Z,101203.81
2023-02-01T22:24:05.731Z,101207.94
2023-02-01T22:26:09.600Z,101201.19
2023-02-01T22:28:31.663Z,101205.25
2023-02-01T22:30:34.248Z,101203.06
2023-02-01T22:32:35.994Z,101210.56
2023-02-01T22:34:37.540Z,101209.75
2023-02-01T22:36:39.352Z,101212.44
2023-02-01T22:38:40.920Z,101208.19
2023-02-01T22:40:42.613Z,101218.44
2023-02-01T22:42:46.679Z,101214.13
2023-02-01T22:44:49.981Z,101206.56
2023-02-01T22:46:51.490Z,101218.13
2023-02-01T22:48:53.074Z,101214.94
2023-02-01T22:50:56.951Z,101216.81
2023-02-01T22:52:58.423Z,101216.00
2023-02-01T22:54:59.977Z,101209.00
2023-02-01T22:57:01.568Z,101210.88
2023-02-01T22:59:05.422Z,101206.31
2023-02-01T23:01:23.259Z,101207.38
2023-02-01T23:03:24.954Z,101208.38
2023-02-01T23:05:26.566Z,101211.63
2023-02-01T23:07:28.143Z,101208.44
2023-02-01T23:09:29.818Z,101204.13
2023-02-01T23:11:31.580Z,101196.31
2023-02-01T23:13:33.668Z,101191.41
2023-02-01T23:15:38.487Z,101199.19
2023-02-01T23:17:42.867Z,101190.63
2023-02-01T23:19:44.351Z,101201.19
2023-02-01T23:21:46.014Z,101198.44
2023-02-01T23:23:48.194Z,101192.78
2023-02-01T23:25:50.816Z,101193.31
2023-02-01T23:27:52.620Z,101192.75
2023-02-01T23:29:54.126Z,101184.69
2023-02-01T23:31:55.776Z,101198.69
2023-02-01T23:33:59.689Z,101193.81
2023-02-01T23:36:03.319Z,101193.03
2023-02-01T23:38:04.936Z,101191.19
2023-02-01T23:40:13.388Z,101193.31
2023-02-01T23:42:14.958Z,101189.56
2023-02-01T23:44:16.530Z,101191.72
2023-02-01T23:46:19.040Z,101186.59
2023-02-01T23:48:20.579Z,101191.91
2023-02-01T23:50:23.432Z,101187.09
2023-02-01T23:52:24.923Z,101184.09
2023-02-01T23:54:26.493Z,101189.50
2023-02-01T23:56:29.794Z,101187.66
2023-02-01T23:58:31.384Z,101191.19
